Pagrindinis puslapis
METAR-TAF:

METAR-TAF

Oro uostai :

Mendosa, Argentina

platuma: 32-50S, ilguma: 068-47W, Aukštis: 705 m

Dabartinis oras

Ataskaita buvo paskelbta 9 minutes, ne 12:00 UTC
Vėjas 14 kt iš Pietų
Temperatūra 16°C
Drėgmė 34%
Slėgis 1022 hPa
Matomumas 10 km arba daugiau
nėra debesų žemiau 1500 m ir nėra kamuolinių lietaus debesų

METAR: SAME 171200Z 18014KT CAVOK 16/M00 Q1022

Laikas: 09:09 (12:09 UTC)

Prognozė

Ataskaita buvo paskelbta 1 valandą ir 9 minutes, ne 11:00 UTC
Prognozė galioja nuo 17 metu 12 UTC su 18 metu 12 UTC
Vėjas 5 kt iš Pietryčių
Matomumas 10 km arba daugiau
nėra debesų žemiau 1500 m ir nėra kamuolinių lietaus debesų

TAF: SAME 171100Z 1712/1812 14005KT CAVOK TX24/1719Z TN12/1810Z

Orai ataskaitas ir orų prognozės (METAR, TAF).

turimą stotys yra geltonos ir raudonos taškus žemėlapyje.

Perkelti pele per norėdami pamatyti stoties vardą.

Tada spustelėkite, norėdami matyti oro stebėjimo ir prognozės.

Norėdami pakeisti žemėlapį: spustelėkite ant žalios mygtukų su juodo kryžiaus žemyn,; žalią mygtuką su brūkšneliu, jei norite nutolinti; arba žalių rodyklių gretimoms žemėlapius.


METAR-TAF: